Time;durP1;ratioP1;P1;durP2;ratioP2;P2;SDS_P1;SDS_P2;PMS_P1;PMS_P2;Temp;Humidity;BMP_temperature;BMP_pressure;BME280_temperature;BME280_humidity;BME280_pressure;Samples;Min_cycle;Max_cycle;Signal;HPM_P1;HPM_P2
2021/06/04 00:00:40;;;;;;;8.30;4.57;;;24.60;64.90;;;;;;5039085;28;20029;-59
2021/06/04 00:03:09;;;;;;;9.73;4.82;;;24.60;65.00;;;;;;5045817;28;20028;-60
2021/06/04 00:05:36;;;;;;;8.13;4.40;;;24.60;65.00;;;;;;5037746;28;20028;-59
2021/06/04 00:08:02;;;;;;;7.38;4.30;;;24.60;65.10;;;;;;5043276;28;20028;-60
2021/06/04 00:10:33;;;;;;;8.98;4.30;;;24.50;65.10;;;;;;5046558;28;20058;-59
2021/06/04 00:13:17;;;;;;;7.30;4.63;;;24.50;65.20;;;;;;5027218;28;20041;-59
2021/06/04 00:15:43;;;;;;;9.60;4.82;;;24.50;65.70;;;;;;5046120;28;20532;-59
2021/06/04 00:18:08;;;;;;;6.70;4.07;;;24.50;65.50;;;;;;5041992;28;20055;-59
2021/06/04 00:20:34;;;;;;;7.25;4.75;;;24.50;65.50;;;;;;5034915;28;20028;-59
2021/06/04 00:23:00;;;;;;;9.50;4.30;;;24.40;65.50;;;;;;5038681;28;20091;-59
2021/06/04 00:25:25;;;;;;;8.68;4.50;;;24.40;65.60;;;;;;5045659;28;20063;-59
2021/06/04 00:27:51;;;;;;;9.50;4.78;;;24.40;65.60;;;;;;5055576;28;20057;-59
2021/06/04 00:30:17;;;;;;;5.93;3.70;;;24.40;65.70;;;;;;5047525;28;20056;-60
2021/06/04 00:32:43;;;;;;;7.82;4.40;;;24.40;65.80;;;;;;5021853;28;20319;-59
2021/06/04 00:35:09;;;;;;;6.97;3.80;;;24.30;65.80;;;;;;5028837;28;20491;-60
2021/06/04 00:37:35;;;;;;;7.80;4.15;;;24.30;65.90;;;;;;5049585;28;20033;-60
2021/06/04 00:40:00;;;;;;;8.55;4.00;;;24.30;66.00;;;;;;5029792;28;20047;-59
2021/06/04 00:42:27;;;;;;;8.68;4.00;;;24.30;66.10;;;;;;5048949;28;20025;-60
2021/06/04 00:44:55;;;;;;;7.72;3.88;;;24.20;66.10;;;;;;5035010;28;20051;-59
2021/06/04 00:47:21;;;;;;;10.15;3.80;;;24.20;66.20;;;;;;5034934;28;20028;-60
2021/06/04 00:49:46;;;;;;;7.38;4.57;;;24.20;66.20;;;;;;5056270;28;20025;-60
2021/06/04 00:52:17;;;;;;;7.18;4.15;;;24.10;66.30;;;;;;5047025;28;20026;-60
2021/06/04 00:54:43;;;;;;;6.13;4.15;;;24.10;66.40;;;;;;5023257;28;20313;-60
2021/06/04 00:57:08;;;;;;;9.82;4.20;;;24.10;66.40;;;;;;5032095;28;20508;-60
2021/06/04 00:59:38;;;;;;;12.93;4.28;;;24.10;66.50;;;;;;5060146;28;20107;-60
2021/06/04 01:02:05;;;;;;;7.10;3.97;;;24.10;66.50;;;;;;5049838;28;20033;-59
2021/06/04 01:04:31;;;;;;;7.47;4.35;;;24.00;66.60;;;;;;5055022;28;20067;-60
2021/06/04 01:06:59;;;;;;;9.32;4.75;;;24.00;66.70;;;;;;5036623;28;20033;-59
2021/06/04 01:09:29;;;;;;;8.82;4.90;;;24.00;66.70;;;;;;5035711;28;20032;-60
2021/06/04 01:12:07;;;;;;;11.40;4.93;;;24.00;66.80;;;;;;5036262;28;20017;-60
2021/06/04 01:15:09;;;;;;;10.63;5.35;;;23.90;66.80;;;;;;5032307;28;20034;-60
2021/06/04 01:18:15;;;;;;;9.73;4.47;;;23.90;67.00;;;;;;5052979;28;20071;-59
2021/06/04 01:20:45;;;;;;;7.82;4.32;;;23.90;67.00;;;;;;5051812;28;20248;-60
2021/06/04 01:23:15;;;;;;;11.93;4.50;;;23.90;67.00;;;;;;5047618;28;20037;-60
2021/06/04 01:25:54;;;;;;;8.20;4.80;;;23.90;67.10;;;;;;5045240;28;20028;-60
2021/06/04 01:28:33;;;;;;;6.38;4.47;;;23.80;67.10;;;;;;5034731;28;20158;-59
2021/06/04 01:31:12;;;;;;;8.27;4.80;;;23.80;67.20;;;;;;5018498;28;20057;-60
2021/06/04 01:33:44;;;;;;;8.85;4.53;;;23.80;67.20;;;;;;5046526;28;20025;-59
2021/06/04 01:36:09;;;;;;;9.77;4.50;;;23.80;67.30;;;;;;5028397;28;20381;-60
2021/06/04 01:38:37;;;;;;;11.30;4.95;;;23.80;67.40;;;;;;5037510;28;20024;-59
2021/06/04 01:41:05;;;;;;;8.10;4.00;;;23.70;67.40;;;;;;5027883;28;20048;-60
2021/06/04 01:43:37;;;;;;;6.53;4.28;;;23.70;67.50;;;;;;5023898;28;20025;-60
2021/06/04 01:46:10;;;;;;;9.20;4.80;;;23.70;67.60;;;;;;5036739;28;20024;-60
2021/06/04 01:48:37;;;;;;;5.85;4.30;;;23.70;67.60;;;;;;5026308;28;20037;-60
2021/06/04 01:51:04;;;;;;;8.57;4.38;;;23.60;67.70;;;;;;5018405;28;20079;-60
2021/06/04 01:53:35;;;;;;;7.50;4.50;;;23.60;67.70;;;;;;5028251;28;20041;-60
2021/06/04 01:56:07;;;;;;;7.20;4.85;;;23.60;67.70;;;;;;5031242;28;20113;-60
2021/06/04 01:58:59;;;;;;;7.47;4.82;;;23.60;67.80;;;;;;5030198;28;20033;-60
2021/06/04 02:01:38;;;;;;;7.53;4.47;;;23.50;67.80;;;;;;5005096;28;20122;-60
2021/06/04 02:04:06;;;;;;;9.10;5.22;;;23.50;67.80;;;;;;5031706;28;20144;-60
2021/06/04 02:06:31;;;;;;;7.45;4.88;;;23.50;67.80;;;;;;5032556;28;20472;-59
2021/06/04 02:08:57;;;;;;;9.25;4.80;;;23.40;67.80;;;;;;5038336;28;20060;-60
2021/06/04 02:11:27;;;;;;;6.40;4.25;;;23.50;68.00;;;;;;5047481;28;20558;-59
2021/06/04 02:13:53;;;;;;;6.63;4.43;;;23.40;68.00;;;;;;5045441;28;20661;-59
2021/06/04 02:16:32;;;;;;;6.10;4.47;;;23.40;68.00;;;;;;5037088;28;20231;-60
2021/06/04 02:19:16;;;;;;;8.77;4.50;;;23.40;68.10;;;;;;5019982;28;20054;-60
2021/06/04 02:22:19;;;;;;;5.25;4.55;;;23.40;68.10;;;;;;5034281;28;20443;-60
2021/06/04 02:24:53;;;;;;;8.00;4.78;;;23.40;68.20;;;;;;5026767;28;20037;-61
2021/06/04 02:27:39;;;;;;;8.27;4.78;;;23.40;68.20;;;;;;5033065;28;20041;-60
2021/06/04 02:30:14;;;;;;;4.82;4.32;;;23.30;68.20;;;;;;5044631;28;20365;-60
2021/06/04 02:32:50;;;;;;;7.25;4.75;;;23.30;68.20;;;;;;5037229;28;20059;-60
2021/06/04 02:35:52;;;;;;;7.60;4.72;;;23.30;68.30;;;;;;5037139;28;20025;-60
2021/06/04 02:38:22;;;;;;;6.97;4.50;;;23.30;68.40;;;;;;5032748;28;20029;-59
2021/06/04 02:40:55;;;;;;;5.10;4.20;;;23.20;68.40;;;;;;5026307;28;20493;-59
2021/06/04 02:43:25;;;;;;;8.07;4.45;;;23.20;69.10;;;;;;5033407;28;20041;-60
2021/06/04 02:45:56;;;;;;;8.30;4.70;;;23.20;68.50;;;;;;5030411;28;20025;-60
2021/06/04 02:48:22;;;;;;;5.43;4.38;;;23.20;68.50;;;;;;5035576;28;20030;-60
2021/06/04 02:51:12;;;;;;;6.35;4.30;;;23.20;68.60;;;;;;5046258;28;20042;-60
2021/06/04 02:53:41;;;;;;;5.95;4.25;;;23.20;68.60;;;;;;5018450;28;20041;-60
2021/06/04 02:56:18;;;;;;;5.45;3.85;;;23.10;68.70;;;;;;5028756;28;20112;-60
2021/06/04 02:58:53;;;;;;;5.78;4.05;;;23.10;68.70;;;;;;5027668;28;20051;-60
2021/06/04 03:01:18;;;;;;;7.00;4.20;;;23.10;68.80;;;;;;5055693;28;20036;-59
2021/06/04 03:03:49;;;;;;;5.25;3.78;;;23.10;68.90;;;;;;5032056;28;20131;-60
2021/06/04 03:06:15;;;;;;;7.85;3.72;;;23.00;68.80;;;;;;5031336;28;20071;-59
2021/06/04 03:08:43;;;;;;;6.88;4.82;;;23.10;68.90;;;;;;5044266;28;20021;-59
2021/06/04 03:11:08;;;;;;;6.70;4.65;;;23.00;69.00;;;;;;5034784;28;20389;-59
2021/06/04 03:13:35;;;;;;;7.13;4.43;;;23.00;69.00;;;;;;5048821;28;20384;-60
2021/06/04 03:16:07;;;;;;;6.47;3.97;;;23.00;69.00;;;;;;5043656;28;20067;-60
2021/06/04 03:18:50;;;;;;;5.82;4.25;;;22.90;69.00;;;;;;5045207;28;20053;-60
2021/06/04 03:21:20;;;;;;;9.98;4.80;;;23.00;69.20;;;;;;5032856;28;20079;-60
2021/06/04 03:23:46;;;;;;;5.82;4.40;;;22.90;69.20;;;;;;5045769;28;20039;-60
2021/06/04 03:26:23;;;;;;;6.70;4.75;;;22.90;69.40;;;;;;5026240;28;20017;-59
2021/06/04 03:28:51;;;;;;;8.32;4.50;;;22.90;69.50;;;;;;5032658;28;20743;-60
2021/06/04 03:31:19;;;;;;;7.07;4.20;;;22.90;69.50;;;;;;5042539;28;20036;-59
2021/06/04 03:33:45;;;;;;;7.78;4.28;;;22.90;69.40;;;;;;5013845;28;20468;-60
2021/06/04 03:36:12;;;;;;;6.07;4.30;;;22.90;69.40;;;;;;5020691;28;20037;-59
2021/06/04 03:38:38;;;;;;;5.10;4.20;;;22.90;69.50;;;;;;5029640;28;20033;-61
2021/06/04 03:41:04;;;;;;;7.28;4.30;;;22.90;69.60;;;;;;5039539;28;20021;-60
2021/06/04 03:43:30;;;;;;;5.43;3.90;;;22.80;69.60;;;;;;5046384;28;20025;-60
2021/06/04 03:45:56;;;;;;;5.95;4.30;;;22.80;69.60;;;;;;5032058;28;20048;-60
2021/06/04 03:48:25;;;;;;;5.65;4.38;;;22.80;69.60;;;;;;5013364;28;20037;-60
2021/06/04 03:50:53;;;;;;;8.18;4.60;;;22.80;69.60;;;;;;5046743;28;20021;-60
2021/06/04 03:53:19;;;;;;;7.30;3.97;;;22.80;69.70;;;;;;5011735;28;20025;-60
2021/06/04 03:55:45;;;;;;;8.45;4.53;;;22.80;69.70;;;;;;5035031;28;20040;-60
2021/06/04 03:58:11;;;;;;;7.43;4.07;;;22.80;69.70;;;;;;5039334;28;20053;-60
2021/06/04 04:00:38;;;;;;;7.03;4.55;;;22.80;69.70;;;;;;5018143;28;20109;-59
2021/06/04 04:03:04;;;;;;;4.20;3.45;;;22.80;69.70;;;;;;5044528;28;21849;-59
2021/06/04 04:05:30;;;;;;;7.03;4.10;;;22.70;69.70;;;;;;5007111;28;20096;-59
2021/06/04 04:07:56;;;;;;;5.20;4.10;;;22.80;69.70;;;;;;5029970;28;20036;-59
2021/06/04 04:10:23;;;;;;;7.30;4.40;;;22.70;69.60;;;;;;5046180;28;20029;-60
2021/06/04 04:12:49;;;;;;;12.95;4.60;;;22.80;69.70;;;;;;5037959;28;20029;-60
2021/06/04 04:15:17;;;;;;;38.60;7.50;;;22.70;69.60;;;;;;5040470;28;20025;-59
2021/06/04 04:17:44;;;;;;;64.78;10.25;;;22.70;69.60;;;;;;5042883;28;20029;-60
2021/06/04 04:20:12;;;;;;;60.35;8.45;;;22.70;70.30;;;;;;5007953;28;20045;-60
2021/06/04 04:22:38;;;;;;;65.93;9.10;;;22.70;69.60;;;;;;5047394;28;20400;-60
2021/06/04 04:25:05;;;;;;;34.92;7.57;;;22.70;69.60;;;;;;5042528;28;20021;-60
2021/06/04 04:27:31;;;;;;;37.45;7.38;;;22.70;69.60;;;;;;5042233;28;20101;-60
2021/06/04 04:29:58;;;;;;;37.65;7.38;;;22.70;69.70;;;;;;5033631;28;20013;-59
2021/06/04 04:32:23;;;;;;;50.55;7.63;;;22.70;69.60;;;;;;5034098;28;20037;-59
2021/06/04 04:34:49;;;;;;;85.40;10.55;;;22.70;69.80;;;;;;5034812;28;20034;-60
2021/06/04 04:37:14;;;;;;;138.50;13.77;;;22.70;69.90;;;;;;5047669;28;20030;-59
2021/06/04 04:39:41;;;;;;;127.22;12.43;;;22.70;69.90;;;;;;5035708;28;20033;-59
2021/06/04 04:42:09;;;;;;;75.38;10.15;;;22.70;69.90;;;;;;5016967;28;20044;-60
2021/06/04 04:44:35;;;;;;;77.07;11.13;;;22.70;69.80;;;;;;5046931;28;20029;-60
2021/06/04 04:47:03;;;;;;;236.70;18.85;;;22.70;69.70;;;;;;5022231;28;20049;-60
2021/06/04 04:49:29;;;;;;;403.02;31.92;;;22.70;70.10;;;;;;5029218;28;20028;-59
2021/06/04 04:51:54;;;;;;;234.40;19.15;;;22.60;70.30;;;;;;5033986;28;20385;-60
2021/06/04 04:54:20;;;;;;;662.47;52.45;;;22.60;70.10;;;;;;5052011;28;20044;-60
2021/06/04 04:56:47;;;;;;;223.20;18.98;;;22.70;70.50;;;;;;5034268;28;20469;-60
2021/06/04 04:59:13;;;;;;;130.50;15.10;;;22.70;70.10;;;;;;5052948;28;20090;-60
2021/06/04 05:01:39;;;;;;;158.40;15.07;;;22.70;70.00;;;;;;5034834;28;20030;-61
2021/06/04 05:04:04;;;;;;;135.02;14.82;;;22.60;70.00;;;;;;5039728;28;20044;-60
2021/06/04 05:06:30;;;;;;;111.30;13.45;;;22.70;70.10;;;;;;5049255;28;20044;-60
2021/06/04 05:08:55;;;;;;;134.15;13.60;;;22.70;70.20;;;;;;5028603;28;20104;-60
2021/06/04 05:11:21;;;;;;;117.38;12.93;;;22.70;70.10;;;;;;5056840;28;20434;-60
2021/06/04 05:13:46;;;;;;;116.53;11.60;;;22.60;70.00;;;;;;5029302;28;20624;-60
2021/06/04 05:16:12;;;;;;;119.90;12.57;;;22.60;70.10;;;;;;5053579;28;20767;-59
2021/06/04 05:18:38;;;;;;;140.60;14.35;;;22.60;70.20;;;;;;5048892;28;20366;-60
2021/06/04 05:21:08;;;;;;;133.18;13.85;;;22.70;70.40;;;;;;5022916;28;20030;-59
2021/06/04 05:23:34;;;;;;;106.75;13.48;;;22.60;70.20;;;;;;5027154;28;20045;-60
2021/06/04 05:26:00;;;;;;;122.28;12.77;;;22.60;70.20;;;;;;5035650;28;20036;-60
2021/06/04 05:28:26;;;;;;;110.38;11.77;;;22.60;70.20;;;;;;5046749;28;20511;-60
2021/06/04 05:30:55;;;;;;;128.60;13.10;;;22.70;70.30;;;;;;5047695;28;20021;-60
2021/06/04 05:33:25;;;;;;;121.93;12.57;;;22.60;70.30;;;;;;5044431;28;20021;-60
2021/06/04 05:35:51;;;;;;;123.07;12.90;;;22.60;70.40;;;;;;5024979;28;20025;-60
2021/06/04 05:38:17;;;;;;;88.68;10.60;;;22.60;70.50;;;;;;5028995;28;20040;-60
2021/06/04 05:40:44;;;;;;;113.90;12.05;;;22.60;70.50;;;;;;5046148;28;20497;-60
2021/06/04 05:43:12;;;;;;;94.30;11.55;;;22.60;71.10;;;;;;5030529;28;20125;-60
2021/06/04 05:45:40;;;;;;;90.43;11.43;;;22.60;71.90;;;;;;5033481;28;20024;-60
2021/06/04 05:48:06;;;;;;;104.82;12.07;;;22.60;71.90;;;;;;5016300;28;20025;-61
2021/06/04 05:50:35;;;;;;;88.93;12.25;;;22.60;71.80;;;;;;5050809;28;20025;-60
2021/06/04 05:53:01;;;;;;;107.13;9.88;;;22.60;71.70;;;;;;5049746;28;20025;-61
2021/06/04 05:55:27;;;;;;;66.78;10.10;;;22.60;71.90;;;;;;5039545;28;20031;-61
2021/06/04 05:57:53;;;;;;;86.95;11.07;;;22.60;71.90;;;;;;5031476;28;20526;-60
2021/06/04 06:00:27;;;;;;;86.07;9.60;;;22.60;72.00;;;;;;5034521;28;20029;-61
2021/06/04 06:02:52;;;;;;;68.85;9.75;;;22.60;72.20;;;;;;5027306;28;20051;-60
2021/06/04 06:05:18;;;;;;;65.22;9.10;;;22.60;72.50;;;;;;5039394;28;20387;-59
2021/06/04 06:07:43;;;;;;;66.35;9.05;;;22.60;72.60;;;;;;5043154;28;20104;-60
2021/06/04 06:10:10;;;;;;;63.33;9.27;;;22.60;72.70;;;;;;5031403;28;20500;-60
2021/06/04 06:12:35;;;;;;;58.53;9.85;;;22.60;72.60;;;;;;5041059;28;20029;-61
2021/06/04 06:15:01;;;;;;;61.92;8.48;;;22.60;72.70;;;;;;5043127;28;20396;-61
2021/06/04 06:17:27;;;;;;;61.38;7.90;;;22.60;73.00;;;;;;5044727;28;20393;-60
2021/06/04 06:19:52;;;;;;;56.70;8.35;;;22.50;73.00;;;;;;5033801;28;20025;-60
2021/06/04 06:22:18;;;;;;;49.72;9.13;;;22.60;73.10;;;;;;5035993;28;20449;-61
2021/06/04 06:24:43;;;;;;;41.15;7.28;;;22.60;73.30;;;;;;5041919;28;20420;-60
2021/06/04 06:27:09;;;;;;;43.60;7.63;;;22.60;74.00;;;;;;5040252;28;20065;-60
2021/06/04 06:29:36;;;;;;;52.20;7.88;;;22.60;73.60;;;;;;5022425;28;20108;-61
2021/06/04 06:32:03;;;;;;;48.33;7.57;;;22.60;73.70;;;;;;5048089;28;20021;-61
2021/06/04 06:34:29;;;;;;;48.78;7.28;;;22.60;73.80;;;;;;5037458;28;20536;-61
2021/06/04 06:36:54;;;;;;;56.80;7.43;;;22.60;74.10;;;;;;5052000;28;20040;-60
2021/06/04 06:39:24;;;;;;;39.47;6.70;;;22.60;74.50;;;;;;5019156;28;20028;-60
2021/06/04 06:41:50;;;;;;;39.72;6.45;;;22.60;74.10;;;;;;5029086;28;20104;-60
2021/06/04 06:44:16;;;;;;;39.13;7.15;;;22.60;74.00;;;;;;5032546;28;20454;-62
2021/06/04 06:46:41;;;;;;;41.25;7.22;;;22.60;74.00;;;;;;5028027;28;20020;-61
2021/06/04 06:49:07;;;;;;;40.47;6.70;;;22.60;74.00;;;;;;5032798;28;20040;-59
2021/06/04 06:51:33;;;;;;;30.70;5.80;;;22.60;75.30;;;;;;5041213;28;20044;-60
2021/06/04 06:53:59;;;;;;;25.95;5.38;;;22.60;75.10;;;;;;5041609;28;20028;-61
2021/06/04 06:56:25;;;;;;;23.55;5.75;;;22.60;75.10;;;;;;5037800;28;20025;-59
2021/06/04 06:58:51;;;;;;;32.88;6.28;;;22.70;74.60;;;;;;5026415;28;20064;-61
2021/06/04 07:01:16;;;;;;;33.97;7.18;;;22.70;75.00;;;;;;5046501;28;20086;-60
2021/06/04 07:03:42;;;;;;;33.65;6.57;;;22.70;74.80;;;;;;5047672;28;20423;-60
2021/06/04 07:06:17;;;;;;;33.55;7.95;;;22.70;77.80;;;;;;5029765;28;20040;-60
2021/06/04 07:08:42;;;;;;;33.45;6.45;;;22.70;78.50;;;;;;5027311;28;20029;-61
2021/06/04 07:11:08;;;;;;;25.88;5.75;;;22.60;79.50;;;;;;5043454;28;20047;-60
2021/06/04 07:13:33;;;;;;;26.33;5.30;;;22.60;80.50;;;;;;5029538;28;20055;-59
2021/06/04 07:16:01;;;;;;;26.38;5.97;;;22.50;80.70;;;;;;5047094;28;20082;-59
2021/06/04 07:18:27;;;;;;;45.95;6.80;;;22.50;81.60;;;;;;5044981;28;20428;-61
2021/06/04 07:20:53;;;;;;;38.20;5.72;;;22.50;82.20;;;;;;5016999;28;20045;-60
2021/06/04 07:23:19;;;;;;;42.20;5.93;;;22.50;82.10;;;;;;5030271;28;20053;-60
2021/06/04 07:25:45;;;;;;;27.95;5.45;;;22.40;82.50;;;;;;5039838;28;20466;-60
2021/06/04 07:28:11;;;;;;;34.55;5.82;;;22.40;82.60;;;;;;5045287;28;20020;-61
2021/06/04 07:30:45;;;;;;;58.95;8.02;;;22.40;82.30;;;;;;5038636;28;20037;-61
2021/06/04 07:33:15;;;;;;;36.95;5.40;;;22.40;82.50;;;;;;5013912;28;20040;-60
2021/06/04 07:35:40;;;;;;;31.58;5.88;;;22.40;82.90;;;;;;5031899;28;20100;-60
2021/06/04 07:38:06;;;;;;;40.80;6.05;;;22.40;82.40;;;;;;5029862;28;20056;-60
2021/06/04 07:40:33;;;;;;;39.25;5.68;;;22.40;81.80;;;;;;5043097;28;20033;-60
2021/06/04 07:43:00;;;;;;;31.20;5.60;;;22.40;81.40;;;;;;5010354;28;20037;-60
2021/06/04 07:45:26;;;;;;;25.73;5.68;;;22.40;80.90;;;;;;5026680;28;20041;-61
2021/06/04 07:47:52;;;;;;;36.20;5.13;;;22.40;80.40;;;;;;5025972;28;20065;-60
2021/06/04 07:50:20;;;;;;;39.55;5.18;;;22.40;80.40;;;;;;5032673;28;20428;-60
2021/06/04 07:52:45;;;;;;;37.15;5.32;;;22.50;79.80;;;;;;5027926;28;20583;-60
2021/06/04 07:55:11;;;;;;;37.45;5.38;;;22.40;79.70;;;;;;5042844;28;20029;-60
2021/06/04 07:57:37;;;;;;;58.35;6.13;;;22.50;79.90;;;;;;5028232;28;20039;-60
2021/06/04 08:00:16;;;;;;;46.83;6.50;;;22.50;79.60;;;;;;5048489;28;20104;-59
2021/06/04 08:02:42;;;;;;;43.83;6.13;;;22.50;79.50;;;;;;5017270;28;20420;-61
2021/06/04 08:05:08;;;;;;;32.33;4.55;;;22.50;79.80;;;;;;5043799;28;20058;-61
2021/06/04 08:07:33;;;;;;;38.95;5.00;;;22.50;79.60;;;;;;5020210;28;20071;-60
2021/06/04 08:09:59;;;;;;;39.15;4.80;;;22.50;80.30;;;;;;5042226;28;20500;-60
2021/06/04 08:12:30;;;;;;;29.58;4.45;;;22.50;79.50;;;;;;5032059;28;20585;-60
2021/06/04 08:15:08;;;;;;;23.00;4.70;;;22.50;79.50;;;;;;5040736;28;20064;-60
2021/06/04 08:17:34;;;;;;;38.08;4.95;;;22.50;79.80;;;;;;5033749;28;20496;-60
2021/06/04 08:19:59;;;;;;;20.92;4.72;;;22.50;79.90;;;;;;5029463;28;20075;-61
2021/06/04 08:22:25;;;;;;;46.63;5.40;;;22.50;79.80;;;;;;5026401;28;20244;-60
2021/06/04 08:24:50;;;;;;;41.90;5.78;;;22.50;79.70;;;;;;5032271;28;20148;-61
2021/06/04 08:27:17;;;;;;;93.03;9.93;;;22.50;79.70;;;;;;5035524;28;20550;-60
2021/06/04 08:29:45;;;;;;;44.10;6.07;;;22.50;80.00;;;;;;5024859;28;20036;-61
2021/06/04 08:32:11;;;;;;;53.60;6.10;;;22.50;80.60;;;;;;5031604;28;20064;-60
2021/06/04 08:34:38;;;;;;;46.10;6.53;;;22.50;80.60;;;;;;5053383;28;20029;-60
2021/06/04 08:37:04;;;;;;;64.63;7.22;;;22.50;80.60;;;;;;5022409;28;20040;-61
2021/06/04 08:39:32;;;;;;;49.58;5.90;;;22.60;80.40;;;;;;5039377;28;20025;-60
2021/06/04 08:42:08;;;;;;;68.95;7.93;;;22.60;80.50;;;;;;5033969;28;20074;-61
2021/06/04 08:45:00;;;;;;;51.28;6.57;;;22.60;80.80;;;;;;5032388;28;20115;-60
2021/06/04 08:47:27;;;;;;;41.10;5.93;;;22.60;80.80;;;;;;5001191;28;20117;-61
2021/06/04 08:49:58;;;;;;;43.90;6.55;;;22.60;80.90;;;;;;5035604;28;20488;-60
2021/06/04 08:52:47;;;;;;;38.78;5.60;;;22.60;81.30;;;;;;5031338;28;20072;-60
2021/06/04 08:56:04;;;;;;;62.78;6.85;;;22.60;81.10;;;;;;5035287;28;20103;-61
2021/06/04 08:58:42;;;;;;;49.28;6.07;;;22.60;81.50;;;;;;5020190;28;20590;-60
2021/06/04 09:01:13;;;;;;;32.25;6.00;;;22.60;81.00;;;;;;5046679;28;20473;-60
2021/06/04 09:03:49;;;;;;;55.53;5.95;;;22.60;80.70;;;;;;5037494;28;20029;-59
2021/06/04 09:06:24;;;;;;;51.58;6.10;;;22.60;80.80;;;;;;5036910;28;20500;-62
2021/06/04 09:08:49;;;;;;;46.22;6.10;;;22.60;81.00;;;;;;5047053;28;20042;-62
2021/06/04 09:11:30;;;;;;;44.53;6.07;;;22.60;81.50;;;;;;5030250;28;20029;-61
2021/06/04 09:13:56;;;;;;;58.17;7.20;;;22.60;82.00;;;;;;5035988;28;20017;-60
2021/06/04 09:16:39;;;;;;;202.55;15.57;;;22.60;82.00;;;;;;5034814;28;20487;-60
2021/06/04 09:19:26;;;;;;;83.93;8.77;;;22.60;81.90;;;;;;5049593;28;20111;-59
2021/06/04 09:21:51;;;;;;;66.25;7.43;;;22.60;81.90;;;;;;5039138;28;20114;-59
2021/06/04 09:24:44;;;;;;;57.33;6.72;;;22.60;82.20;;;;;;5013691;28;20620;-58
2021/06/04 09:27:39;;;;;;;79.47;8.13;;;22.60;82.80;;;;;;5026936;28;20140;-59
2021/06/04 09:30:15;;;;;;;71.00;8.35;;;22.60;82.70;;;;;;5046390;28;20089;-59
2021/06/04 09:32:42;;;;;;;119.78;13.35;;;22.60;82.70;;;;;;5034280;28;20033;-59
2021/06/04 09:35:18;;;;;;;141.13;12.32;;;22.60;82.80;;;;;;5042167;28;20025;-59
2021/06/04 09:37:43;;;;;;;;;;;22.60;83.50;;;;;;5036786;28;20025;-59
2021/06/04 09:40:11;;;;;;;77.40;9.15;;;22.60;83.10;;;;;;5037844;28;19956;-59
2021/06/04 09:42:47;;;;;;;105.03;10.48;;;22.60;83.20;;;;;;5046816;28;20392;-59
2021/06/04 09:45:14;;;;;;;123.00;11.75;;;22.60;83.30;;;;;;5019344;28;20120;-59
2021/06/04 09:47:58;;;;;;;166.82;16.70;;;22.60;83.00;;;;;;5026834;28;20116;-59
2021/06/04 09:50:30;;;;;;;82.55;9.45;;;22.60;83.00;;;;;;5031729;28;20063;-58
2021/06/04 09:53:02;;;;;;;77.78;9.38;;;22.60;82.90;;;;;;5022072;28;20093;-59
2021/06/04 09:55:31;;;;;;;79.80;10.27;;;22.60;83.80;;;;;;5023518;28;20025;-60
2021/06/04 09:57:57;;;;;;;127.53;12.50;;;22.60;83.50;;;;;;5007587;28;20138;-60
2021/06/04 10:00:37;;;;;;;100.80;12.57;;;22.60;82.90;;;;;;5025337;28;20053;-60
2021/06/04 10:03:15;;;;;;;118.18;10.63;;;22.70;82.90;;;;;;5026178;28;20037;-59
2021/06/04 10:05:40;;;;;;;67.32;8.38;;;22.70;82.40;;;;;;5033975;28;20021;-59
2021/06/04 10:08:26;;;;;;;75.53;8.30;;;22.70;82.20;;;;;;5018318;28;20038;-60
2021/06/04 10:11:14;;;;;;;76.03;7.85;;;22.70;82.40;;;;;;5024908;28;20032;-58
2021/06/04 10:13:54;;;;;;;56.65;7.57;;;22.70;82.20;;;;;;5030490;28;20456;-60
2021/06/04 10:19:22;;;;;;;49.83;6.80;;;22.70;82.60;;;;;;5027820;28;20044;-60
2021/06/04 10:21:49;;;;;;;79.53;8.10;;;22.80;82.50;;;;;;5037891;28;20049;-60
2021/06/04 10:24:29;;;;;;;67.78;7.55;;;22.70;82.10;;;;;;5010586;28;20032;-60
2021/06/04 10:26:58;;;;;;;57.63;6.70;;;22.80;82.10;;;;;;5024290;28;20031;-60
2021/06/04 10:29:24;;;;;;;67.55;7.22;;;22.80;81.80;;;;;;5028536;28;20032;-61
2021/06/04 10:31:51;;;;;;;51.03;7.10;;;22.80;81.60;;;;;;5018560;28;20033;-61
2021/06/04 10:34:44;;;;;;;41.55;5.55;;;22.80;81.40;;;;;;5036335;28;20357;-60
2021/06/04 10:37:17;;;;;;;310.27;31.08;;;22.80;81.40;;;;;;5029090;28;20048;-60
2021/06/04 10:40:02;;;;;;;48.05;6.57;;;23.00;81.60;;;;;;5025953;28;20381;-61
2021/06/04 10:42:36;;;;;;;41.50;5.88;;;22.90;81.30;;;;;;5026483;28;20044;-61
2021/06/04 10:45:21;;;;;;;28.88;4.20;;;22.90;81.00;;;;;;5030708;28;20029;-61
2021/06/04 10:48:02;;;;;;;46.70;4.88;;;23.00;80.90;;;;;;5025769;28;20017;-59
2021/06/04 10:50:39;;;;;;;43.35;5.55;;;23.00;80.70;;;;;;5047056;28;20564;-61
2021/06/04 10:53:22;;;;;;;44.20;6.35;;;23.00;81.10;;;;;;5025018;28;20033;-60
2021/06/04 10:55:59;;;;;;;30.30;4.93;;;23.10;81.40;;;;;;5053085;28;20017;-60
2021/06/04 10:58:46;;;;;;;36.00;5.82;;;23.10;80.80;;;;;;5045304;28;20115;-60
2021/06/04 11:01:14;;;;;;;31.52;4.82;;;23.10;81.50;;;;;;5048905;28;20048;-61
2021/06/04 11:03:51;;;;;;;53.90;4.78;;;23.20;81.50;;;;;;5030013;28;20492;-60
2021/06/04 11:06:27;;;;;;;32.67;4.15;;;23.20;81.90;;;;;;5022390;28;20079;-60
2021/06/04 11:09:17;;;;;;;33.95;5.18;;;23.30;81.50;;;;;;5025021;28;20032;-59
2021/06/04 11:12:08;;;;;;;45.92;5.07;;;23.40;81.40;;;;;;5033854;28;20111;-61
2021/06/04 11:14:42;;;;;;;36.10;4.88;;;23.40;80.70;;;;;;5044281;28;20026;-61
2021/06/04 11:17:24;;;;;;;30.05;4.88;;;23.60;80.70;;;;;;5034694;28;20037;-60
2021/06/04 11:20:04;;;;;;;40.95;5.47;;;23.70;81.30;;;;;;5040149;28;20025;-61
2021/06/04 11:22:36;;;;;;;27.15;5.03;;;23.80;80.80;;;;;;5008606;28;20037;-61
2021/06/04 11:25:13;;;;;;;38.55;5.30;;;23.90;80.60;;;;;;5034658;28;20458;-60
2021/06/04 11:27:46;;;;;;;18.10;3.88;;;24.00;80.50;;;;;;5008076;28;20049;-61
2021/06/04 11:30:22;;;;;;;29.45;4.38;;;24.10;80.30;;;;;;5027409;28;20040;-60
2021/06/04 11:33:15;;;;;;;25.77;3.97;;;24.10;80.30;;;;;;5014542;28;20083;-60
2021/06/04 11:36:12;;;;;;;30.90;4.63;;;24.30;79.50;;;;;;5036490;28;20036;-61
2021/06/04 11:38:48;;;;;;;23.45;4.10;;;24.30;79.00;;;;;;5024954;28;20040;-60
2021/06/04 11:41:19;;;;;;;27.30;4.18;;;24.40;78.50;;;;;;5027901;28;20538;-60
2021/06/04 11:43:48;;;;;;;22.88;4.00;;;24.40;78.00;;;;;;5039006;28;20425;-60
2021/06/04 11:46:25;;;;;;;29.33;3.83;;;24.40;78.40;;;;;;5018562;28;20101;-60
2021/06/04 11:49:11;;;;;;;21.45;4.13;;;24.50;77.80;;;;;;5037318;28;20041;-61
2021/06/04 11:51:41;;;;;;;;;;;24.50;76.10;;;;;;5034479;28;20032;-59
2021/06/04 11:54:39;;;;;;;58.47;5.78;;;24.50;75.00;;;;;;5022880;28;19920;-60
2021/06/04 11:57:07;;;;;;;46.60;4.82;;;24.60;74.60;;;;;;5000857;28;20120;-59
2021/06/04 11:59:58;;;;;;;38.28;4.43;;;24.70;73.70;;;;;;5038050;28;20497;-61
2021/06/04 12:02:33;;;;;;;23.13;3.88;;;24.80;73.30;;;;;;5037810;28;20037;-62
2021/06/04 12:05:33;;;;;;;29.77;3.85;;;24.80;72.50;;;;;;5032084;28;20904;-62
2021/06/04 12:08:14;;;;;;;41.10;3.75;;;24.90;72.20;;;;;;5017157;28;20045;-59
2021/06/04 12:10:49;;;;;;;40.40;4.93;;;24.90;71.60;;;;;;5024636;28;20585;-60
2021/06/04 12:13:41;;;;;;;30.23;3.53;;;24.90;71.30;;;;;;5045200;28;20029;-60
2021/06/04 12:16:22;;;;;;;36.67;4.32;;;25.10;71.00;;;;;;5035083;28;20124;-62
2021/06/04 12:18:50;;;;;;;46.60;4.38;;;25.10;70.60;;;;;;5041491;28;20025;-60
2021/06/04 12:21:37;;;;;;;23.73;3.65;;;25.20;70.20;;;;;;5036017;28;20040;-62
2021/06/04 12:24:07;;;;;;;54.92;5.68;;;25.20;69.90;;;;;;5033449;28;20060;-62
2021/06/04 12:26:38;;;;;;;33.83;4.07;;;25.30;70.10;;;;;;5016407;28;20098;-60
2021/06/04 12:29:22;;;;;;;32.70;4.40;;;25.30;69.90;;;;;;5030669;28;20043;-59
2021/06/04 12:31:53;;;;;;;37.45;4.20;;;25.40;70.10;;;;;;5034086;28;20106;-62
2021/06/04 12:34:47;;;;;;;29.17;3.88;;;25.40;70.10;;;;;;5028587;28;20060;-61
2021/06/04 12:37:24;;;;;;;32.42;3.75;;;25.50;70.00;;;;;;5034567;28;20069;-59
2021/06/04 12:39:57;;;;;;;24.13;3.47;;;25.60;69.80;;;;;;5033531;28;20029;-59
2021/06/04 12:42:26;;;;;;;33.85;4.93;;;25.70;69.70;;;;;;5038855;28;20103;-59
2021/06/04 12:45:21;;;;;;;25.27;3.75;;;25.70;69.40;;;;;;5044048;28;20037;-60
2021/06/04 12:47:53;;;;;;;24.77;3.08;;;25.70;69.00;;;;;;5048734;28;20096;-60
2021/06/04 12:50:21;;;;;;;34.58;3.92;;;25.80;68.20;;;;;;5049302;28;20128;-62
2021/06/04 12:52:48;;;;;;;35.13;3.88;;;25.80;68.10;;;;;;5049347;28;20388;-60
2021/06/04 12:55:25;;;;;;;30.50;4.47;;;25.90;67.80;;;;;;5035224;28;20025;-60
2021/06/04 12:57:51;;;;;;;32.58;4.25;;;25.90;67.80;;;;;;5049129;28;20021;-62
2021/06/04 13:00:25;;;;;;;64.25;6.63;;;25.90;67.50;;;;;;5049718;28;20047;-62
2021/06/04 13:02:55;;;;;;;60.55;6.32;;;25.90;67.40;;;;;;5028143;28;20504;-62